sensor_id;sensor_type;location;lat;lon;timestamp;temperature;humidity
56478;DHT22;42382;53.210;5.772;2023-04-01T00:01:57;10.30;93.20
56478;DHT22;42382;53.210;5.772;2023-04-01T00:04:22;10.30;93.20
56478;DHT22;42382;53.210;5.772;2023-04-01T00:06:48;10.30;93.20
56478;DHT22;42382;53.210;5.772;2023-04-01T00:09:13;10.30;93.20
56478;DHT22;42382;53.210;5.772;2023-04-01T00:11:39;10.30;93.30
56478;DHT22;42382;53.210;5.772;2023-04-01T00:14:06;10.30;93.20
56478;DHT22;42382;53.210;5.772;2023-04-01T00:16:31;10.30;93.30
56478;DHT22;42382;53.210;5.772;2023-04-01T00:18:57;10.30;93.30
56478;DHT22;42382;53.210;5.772;2023-04-01T00:21:22;10.30;93.30
56478;DHT22;42382;53.210;5.772;2023-04-01T00:23:49;10.30;93.30
56478;DHT22;42382;53.210;5.772;2023-04-01T00:26:14;10.30;93.30
56478;DHT22;42382;53.210;5.772;2023-04-01T00:28:43;10.30;93.30
56478;DHT22;42382;53.210;5.772;2023-04-01T00:31:09;10.30;93.30
56478;DHT22;42382;53.210;5.772;2023-04-01T00:33:34;10.30;93.30
56478;DHT22;42382;53.210;5.772;2023-04-01T00:36:10;10.30;93.30
56478;DHT22;42382;53.210;5.772;2023-04-01T00:38:36;10.30;93.30
56478;DHT22;42382;53.210;5.772;2023-04-01T00:41:02;10.20;93.30
56478;DHT22;42382;53.210;5.772;2023-04-01T00:43:28;10.30;93.30
56478;DHT22;42382;53.210;5.772;2023-04-01T00:45:53;10.20;93.30
56478;DHT22;42382;53.210;5.772;2023-04-01T00:48:20;10.20;93.30
56478;DHT22;42382;53.210;5.772;2023-04-01T00:50:52;10.20;93.30
56478;DHT22;42382;53.210;5.772;2023-04-01T00:53:19;10.20;93.40
56478;DHT22;42382;53.210;5.772;2023-04-01T00:55:54;10.30;93.30
56478;DHT22;42382;53.210;5.772;2023-04-01T00:58:23;10.20;93.30
56478;DHT22;42382;53.210;5.772;2023-04-01T01:00:49;10.10;93.30
56478;DHT22;42382;53.210;5.772;2023-04-01T01:03:15;10.20;93.30
56478;DHT22;42382;53.210;5.772;2023-04-01T01:05:49;10.20;93.40
56478;DHT22;42382;53.210;5.772;2023-04-01T01:10:47;10.10;93.40
56478;DHT22;42382;53.210;5.772;2023-04-01T01:14:16;10.10;93.40
56478;DHT22;42382;53.210;5.772;2023-04-01T01:16:11;10.10;93.30
56478;DHT22;42382;53.210;5.772;2023-04-01T01:18:46;10.10;93.40
56478;DHT22;42382;53.210;5.772;2023-04-01T01:21:31;10.10;93.40
56478;DHT22;42382;53.210;5.772;2023-04-01T01:24:13;10.10;93.40
56478;DHT22;42382;53.210;5.772;2023-04-01T01:37:27;10.10;93.50
56478;DHT22;42382;53.210;5.772;2023-04-01T01:39:55;10.10;93.30
56478;DHT22;42382;53.210;5.772;2023-04-01T01:42:21;10.10;93.40
56478;DHT22;42382;53.210;5.772;2023-04-01T01:44:49;10.10;93.40
56478;DHT22;42382;53.210;5.772;2023-04-01T01:47:15;10.00;93.40
56478;DHT22;42382;53.210;5.772;2023-04-01T01:49:42;10.10;93.40
56478;DHT22;42382;53.210;5.772;2023-04-01T01:52:08;10.10;93.40
56478;DHT22;42382;53.210;5.772;2023-04-01T01:54:34;10.10;93.40
56478;DHT22;42382;53.210;5.772;2023-04-01T01:57:02;10.10;93.50
56478;DHT22;42382;53.210;5.772;2023-04-01T01:59:30;10.10;93.50
56478;DHT22;42382;53.210;5.772;2023-04-01T02:01:56;10.10;93.40
56478;DHT22;42382;53.210;5.772;2023-04-01T02:04:22;10.10;93.50
56478;DHT22;42382;53.210;5.772;2023-04-01T02:06:59;10.00;93.40
56478;DHT22;42382;53.210;5.772;2023-04-01T02:09:27;10.00;93.50
56478;DHT22;42382;53.210;5.772;2023-04-01T02:12:01;10.00;93.60
56478;DHT22;42382;53.210;5.772;2023-04-01T02:14:29;10.00;93.60
56478;DHT22;42382;53.210;5.772;2023-04-01T02:16:57;10.00;93.60
56478;DHT22;42382;53.210;5.772;2023-04-01T02:19:27;10.00;93.60
56478;DHT22;42382;53.210;5.772;2023-04-01T02:21:55;10.00;93.60
56478;DHT22;42382;53.210;5.772;2023-04-01T02:24:22;10.00;93.50
56478;DHT22;42382;53.210;5.772;2023-04-01T02:26:50;10.00;93.60
56478;DHT22;42382;53.210;5.772;2023-04-01T02:29:16;10.00;93.60
56478;DHT22;42382;53.210;5.772;2023-04-01T02:31:42;10.00;93.70
56478;DHT22;42382;53.210;5.772;2023-04-01T02:34:07;10.00;93.70
56478;DHT22;42382;53.210;5.772;2023-04-01T02:36:36;9.90;93.70
56478;DHT22;42382;53.210;5.772;2023-04-01T02:39:03;10.00;93.70
56478;DHT22;42382;53.210;5.772;2023-04-01T02:41:29;10.00;93.70
56478;DHT22;42382;53.210;5.772;2023-04-01T02:43:55;9.90;93.70
56478;DHT22;42382;53.210;5.772;2023-04-01T02:46:22;10.00;93.70
56478;DHT22;42382;53.210;5.772;2023-04-01T02:48:48;10.00;93.70
56478;DHT22;42382;53.210;5.772;2023-04-01T02:51:13;10.00;93.80
56478;DHT22;42382;53.210;5.772;2023-04-01T02:53:39;10.00;93.80
56478;DHT22;42382;53.210;5.772;2023-04-01T02:56:04;10.00;93.80
56478;DHT22;42382;53.210;5.772;2023-04-01T02:58:30;10.00;93.70
56478;DHT22;42382;53.210;5.772;2023-04-01T03:00:55;10.00;93.80
56478;DHT22;42382;53.210;5.772;2023-04-01T03:03:21;10.00;93.80
56478;DHT22;42382;53.210;5.772;2023-04-01T03:05:46;10.00;93.80
56478;DHT22;42382;53.210;5.772;2023-04-01T03:08:12;10.00;93.70
56478;DHT22;42382;53.210;5.772;2023-04-01T03:10:37;10.00;93.80
56478;DHT22;42382;53.210;5.772;2023-04-01T03:13:03;10.00;93.70
56478;DHT22;42382;53.210;5.772;2023-04-01T03:15:28;10.00;93.70
56478;DHT22;42382;53.210;5.772;2023-04-01T03:17:54;10.00;93.70
56478;DHT22;42382;53.210;5.772;2023-04-01T03:20:19;10.00;93.70
56478;DHT22;42382;53.210;5.772;2023-04-01T03:22:45;10.00;93.80
56478;DHT22;42382;53.210;5.772;2023-04-01T03:25:12;10.00;93.70
56478;DHT22;42382;53.210;5.772;2023-04-01T03:27:37;10.00;93.70
56478;DHT22;42382;53.210;5.772;2023-04-01T03:30:04;10.00;93.80
56478;DHT22;42382;53.210;5.772;2023-04-01T03:32:29;10.00;93.80
56478;DHT22;42382;53.210;5.772;2023-04-01T03:34:55;10.00;93.80
56478;DHT22;42382;53.210;5.772;2023-04-01T03:37:21;10.00;93.70
56478;DHT22;42382;53.210;5.772;2023-04-01T03:39:46;10.00;93.80
56478;DHT22;42382;53.210;5.772;2023-04-01T03:42:12;10.00;93.80
56478;DHT22;42382;53.210;5.772;2023-04-01T03:44:37;10.00;93.80
56478;DHT22;42382;53.210;5.772;2023-04-01T03:47:03;10.00;93.80
56478;DHT22;42382;53.210;5.772;2023-04-01T03:49:28;10.00;93.80
56478;DHT22;42382;53.210;5.772;2023-04-01T03:51:54;10.00;93.80
56478;DHT22;42382;53.210;5.772;2023-04-01T03:54:19;10.00;93.80
56478;DHT22;42382;53.210;5.772;2023-04-01T03:56:46;10.00;93.80
56478;DHT22;42382;53.210;5.772;2023-04-01T03:59:11;10.00;93.80
56478;DHT22;42382;53.210;5.772;2023-04-01T04:01:37;10.00;93.80
56478;DHT22;42382;53.210;5.772;2023-04-01T04:04:03;9.90;93.80
56478;DHT22;42382;53.210;5.772;2023-04-01T04:06:28;9.90;93.80
56478;DHT22;42382;53.210;5.772;2023-04-01T04:08:54;10.00;93.80
56478;DHT22;42382;53.210;5.772;2023-04-01T04:11:20;9.90;93.80
56478;DHT22;42382;53.210;5.772;2023-04-01T04:13:45;9.90;93.80
56478;DHT22;42382;53.210;5.772;2023-04-01T04:16:13;9.90;93.80
56478;DHT22;42382;53.210;5.772;2023-04-01T04:18:38;9.90;93.80
56478;DHT22;42382;53.210;5.772;2023-04-01T04:21:04;9.90;93.80
56478;DHT22;42382;53.210;5.772;2023-04-01T04:23:29;9.90;93.80
56478;DHT22;42382;53.210;5.772;2023-04-01T04:25:57;9.90;93.80
56478;DHT22;42382;53.210;5.772;2023-04-01T04:28:24;9.90;93.80
56478;DHT22;42382;53.210;5.772;2023-04-01T04:30:49;9.90;93.80
56478;DHT22;42382;53.210;5.772;2023-04-01T04:33:15;9.90;93.90
56478;DHT22;42382;53.210;5.772;2023-04-01T04:35:40;9.90;93.90
56478;DHT22;42382;53.210;5.772;2023-04-01T04:38:06;9.90;93.80
56478;DHT22;42382;53.210;5.772;2023-04-01T04:40:31;9.90;93.90
56478;DHT22;42382;53.210;5.772;2023-04-01T04:42:57;9.90;94.00
56478;DHT22;42382;53.210;5.772;2023-04-01T04:45:22;9.90;94.00
56478;DHT22;42382;53.210;5.772;2023-04-01T04:47:48;9.90;94.00
56478;DHT22;42382;53.210;5.772;2023-04-01T04:50:13;9.90;94.00
56478;DHT22;42382;53.210;5.772;2023-04-01T04:52:39;9.90;94.00
56478;DHT22;42382;53.210;5.772;2023-04-01T04:55:05;9.90;94.00
56478;DHT22;42382;53.210;5.772;2023-04-01T04:57:30;10.00;94.00
56478;DHT22;42382;53.210;5.772;2023-04-01T04:59:56;9.90;93.90
56478;DHT22;42382;53.210;5.772;2023-04-01T05:02:21;9.90;93.90
56478;DHT22;42382;53.210;5.772;2023-04-01T05:04:47;9.90;93.90
56478;DHT22;42382;53.210;5.772;2023-04-01T05:07:12;9.90;94.00
56478;DHT22;42382;53.210;5.772;2023-04-01T05:09:38;10.00;94.00
56478;DHT22;42382;53.210;5.772;2023-04-01T05:12:03;9.90;93.90
56478;DHT22;42382;53.210;5.772;2023-04-01T05:14:29;9.90;94.00
56478;DHT22;42382;53.210;5.772;2023-04-01T05:16:54;9.90;94.00
56478;DHT22;42382;53.210;5.772;2023-04-01T05:19:20;10.00;94.00
56478;DHT22;42382;53.210;5.772;2023-04-01T05:21:45;10.00;94.00
56478;DHT22;42382;53.210;5.772;2023-04-01T05:24:11;9.90;94.00
56478;DHT22;42382;53.210;5.772;2023-04-01T05:26:36;9.90;94.00
56478;DHT22;42382;53.210;5.772;2023-04-01T05:29:03;9.90;94.00
56478;DHT22;42382;53.210;5.772;2023-04-01T05:31:29;9.90;94.00
56478;DHT22;42382;53.210;5.772;2023-04-01T05:33:55;9.90;94.00
56478;DHT22;42382;53.210;5.772;2023-04-01T05:36:20;9.90;94.00
56478;DHT22;42382;53.210;5.772;2023-04-01T05:38:46;9.90;94.00
56478;DHT22;42382;53.210;5.772;2023-04-01T05:41:12;9.90;94.10
56478;DHT22;42382;53.210;5.772;2023-04-01T05:43:38;9.90;94.10
56478;DHT22;42382;53.210;5.772;2023-04-01T05:46:05;9.90;94.00
56478;DHT22;42382;53.210;5.772;2023-04-01T05:48:30;10.00;94.10
56478;DHT22;42382;53.210;5.772;2023-04-01T05:50:56;9.90;94.00
56478;DHT22;42382;53.210;5.772;2023-04-01T05:53:21;9.90;94.10
56478;DHT22;42382;53.210;5.772;2023-04-01T05:55:47;10.00;94.10
56478;DHT22;42382;53.210;5.772;2023-04-01T05:58:13;9.90;94.00
56478;DHT22;42382;53.210;5.772;2023-04-01T06:00:38;9.90;94.00
56478;DHT22;42382;53.210;5.772;2023-04-01T06:03:04;10.00;94.00
56478;DHT22;42382;53.210;5.772;2023-04-01T06:05:38;9.90;94.00
56478;DHT22;42382;53.210;5.772;2023-04-01T06:08:14;10.00;94.10
56478;DHT22;42382;53.210;5.772;2023-04-01T06:24:15;9.90;94.10
56478;DHT22;42382;53.210;5.772;2023-04-01T06:26:37;9.90;94.10
56478;DHT22;42382;53.210;5.772;2023-04-01T06:40:01;10.00;94.10
56478;DHT22;42382;53.210;5.772;2023-04-01T06:48:06;10.00;94.20
56478;DHT22;42382;53.210;5.772;2023-04-01T06:53:10;10.00;94.20
56478;DHT22;42382;53.210;5.772;2023-04-01T06:55:40;10.00;94.20
56478;DHT22;42382;53.210;5.772;2023-04-01T06:58:11;10.00;94.10
56478;DHT22;42382;53.210;5.772;2023-04-01T07:00:39;10.00;94.20
56478;DHT22;42382;53.210;5.772;2023-04-01T07:05:50;10.00;94.20
56478;DHT22;42382;53.210;5.772;2023-04-01T07:08:26;10.00;94.20
56478;DHT22;42382;53.210;5.772;2023-04-01T07:10:58;10.00;94.20
56478;DHT22;42382;53.210;5.772;2023-04-01T07:13:30;10.00;94.20
56478;DHT22;42382;53.210;5.772;2023-04-01T07:18:49;10.10;94.20
56478;DHT22;42382;53.210;5.772;2023-04-01T07:23:53;10.10;94.20
56478;DHT22;42382;53.210;5.772;2023-04-01T07:26:21;10.10;94.20
56478;DHT22;42382;53.210;5.772;2023-04-01T07:28:46;10.20;94.20
56478;DHT22;42382;53.210;5.772;2023-04-01T07:33:54;10.20;94.20
56478;DHT22;42382;53.210;5.772;2023-04-01T07:36:29;10.20;94.10
56478;DHT22;42382;53.210;5.772;2023-04-01T07:39:04;10.20;94.10
56478;DHT22;42382;53.210;5.772;2023-04-01T07:41:44;10.20;94.00
56478;DHT22;42382;53.210;5.772;2023-04-01T07:52:01;10.00;94.10
56478;DHT22;42382;53.210;5.772;2023-04-01T07:57:21;10.00;94.20
56478;DHT22;42382;53.210;5.772;2023-04-01T08:07:40;10.20;94.40
56478;DHT22;42382;53.210;5.772;2023-04-01T08:10:13;10.30;94.30
56478;DHT22;42382;53.210;5.772;2023-04-01T08:12:58;10.30;94.30
56478;DHT22;42382;53.210;5.772;2023-04-01T08:15:28;10.30;94.30
56478;DHT22;42382;53.210;5.772;2023-04-01T08:18:03;10.40;94.30
56478;DHT22;42382;53.210;5.772;2023-04-01T08:20:39;10.40;94.20
56478;DHT22;42382;53.210;5.772;2023-04-01T08:23:13;10.40;94.20
56478;DHT22;42382;53.210;5.772;2023-04-01T08:25:46;10.50;94.30
56478;DHT22;42382;53.210;5.772;2023-04-01T08:31:12;10.50;94.10
56478;DHT22;42382;53.210;5.772;2023-04-01T08:33:39;10.40;93.90
56478;DHT22;42382;53.210;5.772;2023-04-01T08:36:25;10.40;93.90
56478;DHT22;42382;53.210;5.772;2023-04-01T08:39:06;10.40;93.90
56478;DHT22;42382;53.210;5.772;2023-04-01T08:42:00;10.40;93.90
56478;DHT22;42382;53.210;5.772;2023-04-01T08:56:40;10.50;93.80
56478;DHT22;42382;53.210;5.772;2023-04-01T09:02:24;10.60;93.60
56478;DHT22;42382;53.210;5.772;2023-04-01T09:08:09;10.60;93.60
56478;DHT22;42382;53.210;5.772;2023-04-01T09:14:09;10.60;93.40
56478;DHT22;42382;53.210;5.772;2023-04-01T09:22:36;10.80;93.00
56478;DHT22;42382;53.210;5.772;2023-04-01T09:25:24;10.80;93.00
56478;DHT22;42382;53.210;5.772;2023-04-01T09:33:34;10.70;92.50
56478;DHT22;42382;53.210;5.772;2023-04-01T09:42:22;10.80;92.50
56478;DHT22;42382;53.210;5.772;2023-04-01T09:44:34;10.90;92.60
56478;DHT22;42382;53.210;5.772;2023-04-01T09:47:40;10.90;92.20
56478;DHT22;42382;53.210;5.772;2023-04-01T09:59:31;10.60;92.00
56478;DHT22;42382;53.210;5.772;2023-04-01T10:05:12;10.80;92.00
56478;DHT22;42382;53.210;5.772;2023-04-01T10:11:22;10.90;91.60
56478;DHT22;42382;53.210;5.772;2023-04-01T10:14:25;11.00;91.80
56478;DHT22;42382;53.210;5.772;2023-04-01T10:17:31;11.00;90.90
56478;DHT22;42382;53.210;5.772;2023-04-01T10:26:02;10.90;90.60
56478;DHT22;42382;53.210;5.772;2023-04-01T10:28:52;10.90;90.80
56478;DHT22;42382;53.210;5.772;2023-04-01T10:36:52;10.70;90.10
56478;DHT22;42382;53.210;5.772;2023-04-01T11:02:06;10.30;90.40
56478;DHT22;42382;53.210;5.772;2023-04-01T11:13:33;10.50;90.50
56478;DHT22;42382;53.210;5.772;2023-04-01T11:16:31;10.60;90.30
56478;DHT22;42382;53.210;5.772;2023-04-01T11:21:58;10.70;90.00
56478;DHT22;42382;53.210;5.772;2023-04-01T11:24:34;10.60;89.40
56478;DHT22;42382;53.210;5.772;2023-04-01T11:27:10;10.60;88.90
56478;DHT22;42382;53.210;5.772;2023-04-01T11:32:34;10.60;89.00
56478;DHT22;42382;53.210;5.772;2023-04-01T11:35:21;10.80;89.50
56478;DHT22;42382;53.210;5.772;2023-04-01T11:40:25;10.90;88.40
56478;DHT22;42382;53.210;5.772;2023-04-01T11:42:57;10.90;87.90
56478;DHT22;42382;53.210;5.772;2023-04-01T11:50:27;11.00;88.10
56478;DHT22;42382;53.210;5.772;2023-04-01T12:06:22;10.90;87.20
56478;DHT22;42382;53.210;5.772;2023-04-01T12:19:14;10.60;86.90
56478;DHT22;42382;53.210;5.772;2023-04-01T12:26:55;10.70;87.40
56478;DHT22;42382;53.210;5.772;2023-04-01T12:37:12;10.50;87.30
56478;DHT22;42382;53.210;5.772;2023-04-01T12:39:55;10.60;87.50
56478;DHT22;42382;53.210;5.772;2023-04-01T12:48:06;10.60;87.20
56478;DHT22;42382;53.210;5.772;2023-04-01T12:53:12;10.90;87.80
56478;DHT22;42382;53.210;5.772;2023-04-01T12:55:43;10.80;86.30
56478;DHT22;42382;53.210;5.772;2023-04-01T13:14:07;10.40;86.30
56478;DHT22;42382;53.210;5.772;2023-04-01T13:16:42;10.40;86.40
56478;DHT22;42382;53.210;5.772;2023-04-01T13:19:18;10.30;86.10
56478;DHT22;42382;53.210;5.772;2023-04-01T13:21:55;10.30;86.60
56478;DHT22;42382;53.210;5.772;2023-04-01T13:26:55;10.30;86.50
56478;DHT22;42382;53.210;5.772;2023-04-01T13:29:44;10.30;86.00
56478;DHT22;42382;53.210;5.772;2023-04-01T13:32:13;10.20;85.90
56478;DHT22;42382;53.210;5.772;2023-04-01T13:35:06;10.20;86.20
56478;DHT22;42382;53.210;5.772;2023-04-01T13:42:27;10.20;86.00
56478;DHT22;42382;53.210;5.772;2023-04-01T13:44:55;10.10;85.90
56478;DHT22;42382;53.210;5.772;2023-04-01T13:58:02;10.10;86.40
56478;DHT22;42382;53.210;5.772;2023-04-01T14:00:42;10.00;86.30
56478;DHT22;42382;53.210;5.772;2023-04-01T14:08:17;9.90;86.30
56478;DHT22;42382;53.210;5.772;2023-04-01T14:10:49;9.90;86.00
56478;DHT22;42382;53.210;5.772;2023-04-01T14:13:30;9.90;85.90
56478;DHT22;42382;53.210;5.772;2023-04-01T14:34:18;9.70;85.80
56478;DHT22;42382;53.210;5.772;2023-04-01T14:36:50;9.70;86.20
56478;DHT22;42382;53.210;5.772;2023-04-01T14:47:11;9.70;86.00
56478;DHT22;42382;53.210;5.772;2023-04-01T14:49:48;9.70;86.40
56478;DHT22;42382;53.210;5.772;2023-04-01T14:54:42;9.70;85.90
56478;DHT22;42382;53.210;5.772;2023-04-01T14:57:13;9.60;85.90
56478;DHT22;42382;53.210;5.772;2023-04-01T14:59:40;9.60;85.50
56478;DHT22;42382;53.210;5.772;2023-04-01T15:02:25;9.50;85.60
56478;DHT22;42382;53.210;5.772;2023-04-01T15:07:33;9.40;86.10
56478;DHT22;42382;53.210;5.772;2023-04-01T15:17:34;9.20;85.80
56478;DHT22;42382;53.210;5.772;2023-04-01T15:20:13;9.20;86.30
56478;DHT22;42382;53.210;5.772;2023-04-01T15:25:36;9.00;86.00
56478;DHT22;42382;53.210;5.772;2023-04-01T15:28:28;9.00;86.10
56478;DHT22;42382;53.210;5.772;2023-04-01T15:36:05;8.80;86.30
56478;DHT22;42382;53.210;5.772;2023-04-01T15:38:36;8.80;86.50
56478;DHT22;42382;53.210;5.772;2023-04-01T15:49:04;8.70;86.30
56478;DHT22;42382;53.210;5.772;2023-04-01T15:54:23;8.70;86.30
56478;DHT22;42382;53.210;5.772;2023-04-01T15:59:19;8.60;86.60
56478;DHT22;42382;53.210;5.772;2023-04-01T16:17:21;8.40;86.60
56478;DHT22;42382;53.210;5.772;2023-04-01T16:20:02;8.40;86.70
56478;DHT22;42382;53.210;5.772;2023-04-01T16:22:38;8.40;86.80
56478;DHT22;42382;53.210;5.772;2023-04-01T16:25:26;8.30;86.20
56478;DHT22;42382;53.210;5.772;2023-04-01T16:33:36;8.20;86.70
56478;DHT22;42382;53.210;5.772;2023-04-01T16:38:46;8.20;87.10
56478;DHT22;42382;53.210;5.772;2023-04-01T16:41:34;8.20;86.80
56478;DHT22;42382;53.210;5.772;2023-04-01T16:44:10;8.10;86.80
56478;DHT22;42382;53.210;5.772;2023-04-01T16:46:41;8.10;86.90
56478;DHT22;42382;53.210;5.772;2023-04-01T16:54:17;8.00;87.00
56478;DHT22;42382;53.210;5.772;2023-04-01T16:59:22;7.80;87.00
56478;DHT22;42382;53.210;5.772;2023-04-01T17:01:51;7.80;87.10
56478;DHT22;42382;53.210;5.772;2023-04-01T17:06:59;7.80;87.10
56478;DHT22;42382;53.210;5.772;2023-04-01T17:17:24;7.70;87.50
56478;DHT22;42382;53.210;5.772;2023-04-01T17:20:14;7.80;87.30
56478;DHT22;42382;53.210;5.772;2023-04-01T17:22:47;7.70;87.20
56478;DHT22;42382;53.210;5.772;2023-04-01T17:25:35;7.70;87.50
56478;DHT22;42382;53.210;5.772;2023-04-01T17:33:25;7.60;87.20
56478;DHT22;42382;53.210;5.772;2023-04-01T17:35:58;7.50;87.00
56478;DHT22;42382;53.210;5.772;2023-04-01T17:41:30;7.50;87.20
56478;DHT22;42382;53.210;5.772;2023-04-01T17:44:00;7.50;86.90
56478;DHT22;42382;53.210;5.772;2023-04-01T17:46:35;7.40;87.20
56478;DHT22;42382;53.210;5.772;2023-04-01T17:51:41;7.40;87.40
56478;DHT22;42382;53.210;5.772;2023-04-01T17:56:54;7.40;87.40
56478;DHT22;42382;53.210;5.772;2023-04-01T17:59:38;7.30;87.60
56478;DHT22;42382;53.210;5.772;2023-04-01T18:02:29;7.30;87.80
56478;DHT22;42382;53.210;5.772;2023-04-01T18:10:10;7.20;87.90
56478;DHT22;42382;53.210;5.772;2023-04-01T18:12:52;7.20;88.00
56478;DHT22;42382;53.210;5.772;2023-04-01T18:15:22;7.10;87.90
56478;DHT22;42382;53.210;5.772;2023-04-01T18:18:08;7.10;88.00
56478;DHT22;42382;53.210;5.772;2023-04-01T18:25:55;7.10;88.00
56478;DHT22;42382;53.210;5.772;2023-04-01T18:30:54;7.00;87.80
56478;DHT22;42382;53.210;5.772;2023-04-01T18:34:06;7.00;87.70
56478;DHT22;42382;53.210;5.772;2023-04-01T18:36:15;7.10;87.90
56478;DHT22;42382;53.210;5.772;2023-04-01T18:41:34;7.00;87.40
56478;DHT22;42382;53.210;5.772;2023-04-01T18:57:51;6.90;86.90
56478;DHT22;42382;53.210;5.772;2023-04-01T19:00:28;6.90;87.10
56478;DHT22;42382;53.210;5.772;2023-04-01T19:05:33;6.90;87.20
56478;DHT22;42382;53.210;5.772;2023-04-01T19:08:19;6.90;87.10
56478;DHT22;42382;53.210;5.772;2023-04-01T19:10:55;6.80;86.90
56478;DHT22;42382;53.210;5.772;2023-04-01T19:13:30;6.80;86.70
56478;DHT22;42382;53.210;5.772;2023-04-01T19:18:49;6.80;86.90
56478;DHT22;42382;53.210;5.772;2023-04-01T19:21:26;6.80;87.30
56478;DHT22;42382;53.210;5.772;2023-04-01T19:26:32;6.80;86.90
56478;DHT22;42382;53.210;5.772;2023-04-01T19:29:05;6.70;86.50
56478;DHT22;42382;53.210;5.772;2023-04-01T19:34:25;6.70;86.90
56478;DHT22;42382;53.210;5.772;2023-04-01T19:41:58;6.70;86.90
56478;DHT22;42382;53.210;5.772;2023-04-01T19:47:12;6.70;87.00
56478;DHT22;42382;53.210;5.772;2023-04-01T19:52:15;6.60;86.80
56478;DHT22;42382;53.210;5.772;2023-04-01T19:55:04;6.70;86.90
56478;DHT22;42382;53.210;5.772;2023-04-01T19:57:38;6.70;87.10
56478;DHT22;42382;53.210;5.772;2023-04-01T20:07:43;6.70;86.50
56478;DHT22;42382;53.210;5.772;2023-04-01T20:10:10;6.60;86.30
56478;DHT22;42382;53.210;5.772;2023-04-01T20:17:45;6.50;86.10
56478;DHT22;42382;53.210;5.772;2023-04-01T20:27:39;6.40;86.50
56478;DHT22;42382;53.210;5.772;2023-04-01T20:30:25;6.40;86.50
56478;DHT22;42382;53.210;5.772;2023-04-01T20:35:48;6.40;86.10
56478;DHT22;42382;53.210;5.772;2023-04-01T20:40:44;6.40;86.20
56478;DHT22;42382;53.210;5.772;2023-04-01T20:53:16;6.30;86.00
56478;DHT22;42382;53.210;5.772;2023-04-01T20:58:48;6.30;86.00
56478;DHT22;42382;53.210;5.772;2023-04-01T21:09:02;6.30;85.40
56478;DHT22;42382;53.210;5.772;2023-04-01T21:11:35;6.30;85.70
56478;DHT22;42382;53.210;5.772;2023-04-01T21:19:36;6.20;85.80
56478;DHT22;42382;53.210;5.772;2023-04-01T21:32:41;6.10;85.20
56478;DHT22;42382;53.210;5.772;2023-04-01T21:35:23;6.20;85.70
56478;DHT22;42382;53.210;5.772;2023-04-01T21:38:11;6.20;85.60
56478;DHT22;42382;53.210;5.772;2023-04-01T21:40:44;6.10;85.50
56478;DHT22;42382;53.210;5.772;2023-04-01T22:01:50;5.90;84.50
56478;DHT22;42382;53.210;5.772;2023-04-01T22:06:48;5.80;85.00
56478;DHT22;42382;53.210;5.772;2023-04-01T22:09:28;5.80;85.10
56478;DHT22;42382;53.210;5.772;2023-04-01T22:14:42;5.80;84.90
56478;DHT22;42382;53.210;5.772;2023-04-01T22:19:45;5.70;85.00
56478;DHT22;42382;53.210;5.772;2023-04-01T22:22:18;5.70;84.70
56478;DHT22;42382;53.210;5.772;2023-04-01T22:25:30;5.70;84.60
56478;DHT22;42382;53.210;5.772;2023-04-01T22:27:44;5.70;84.80
56478;DHT22;42382;53.210;5.772;2023-04-01T22:30:17;5.70;84.30
56478;DHT22;42382;53.210;5.772;2023-04-01T22:32:49;5.70;83.60
56478;DHT22;42382;53.210;5.772;2023-04-01T22:40:27;5.60;83.60
56478;DHT22;42382;53.210;5.772;2023-04-01T22:42:57;5.60;83.80
56478;DHT22;42382;53.210;5.772;2023-04-01T22:51:03;5.40;83.20
56478;DHT22;42382;53.210;5.772;2023-04-01T22:53:45;5.30;82.80
56478;DHT22;42382;53.210;5.772;2023-04-01T22:56:18;5.20;83.00
56478;DHT22;42382;53.210;5.772;2023-04-01T22:58:49;5.10;83.00
56478;DHT22;42382;53.210;5.772;2023-04-01T23:01:19;5.00;83.00
56478;DHT22;42382;53.210;5.772;2023-04-01T23:03:46;5.00;83.20
56478;DHT22;42382;53.210;5.772;2023-04-01T23:06:18;4.90;83.40
56478;DHT22;42382;53.210;5.772;2023-04-01T23:08:51;4.90;83.00
56478;DHT22;42382;53.210;5.772;2023-04-01T23:11:23;4.80;82.70
56478;DHT22;42382;53.210;5.772;2023-04-01T23:13:53;4.80;83.40
56478;DHT22;42382;53.210;5.772;2023-04-01T23:16:24;4.70;83.50
56478;DHT22;42382;53.210;5.772;2023-04-01T23:21:39;4.60;83.20
56478;DHT22;42382;53.210;5.772;2023-04-01T23:26:42;4.60;83.10
56478;DHT22;42382;53.210;5.772;2023-04-01T23:29:14;4.60;83.20
56478;DHT22;42382;53.210;5.772;2023-04-01T23:31:41;4.50;83.60
56478;DHT22;42382;53.210;5.772;2023-04-01T23:36:49;4.40;83.10
56478;DHT22;42382;53.210;5.772;2023-04-01T23:39:27;4.40;83.50
56478;DHT22;42382;53.210;5.772;2023-04-01T23:41:55;4.40;83.20
56478;DHT22;42382;53.210;5.772;2023-04-01T23:44:21;4.40;83.50
56478;DHT22;42382;53.210;5.772;2023-04-01T23:46:49;4.30;83.60
56478;DHT22;42382;53.210;5.772;2023-04-01T23:49:20;4.30;83.20
56478;DHT22;42382;53.210;5.772;2023-04-01T23:51:56;4.30;83.40
56478;DHT22;42382;53.210;5.772;2023-04-01T23:54:30;4.20;83.60
56478;DHT22;42382;53.210;5.772;2023-04-01T23:56:57;4.20;83.50
56478;DHT22;42382;53.210;5.772;2023-04-01T23:59:30;4.20;83.60
